createdAt,value
2022-10-23T00:01:42.581Z,33.60
2022-10-23T00:04:14.134Z,34.00
2022-10-23T00:06:41.750Z,34.30
2022-10-23T00:09:11.117Z,34.90
2022-10-23T00:11:38.509Z,35.00
2022-10-23T00:14:07.914Z,35.60
2022-10-23T00:16:35.237Z,35.50
2022-10-23T00:19:02.634Z,35.80
2022-10-23T00:21:29.597Z,35.70
2022-10-23T00:23:56.669Z,35.60
2022-10-23T00:26:23.971Z,35.70
2022-10-23T00:28:52.918Z,35.60
2022-10-23T00:31:21.230Z,35.60
2022-10-23T00:33:48.599Z,35.60
2022-10-23T00:36:17.298Z,34.80
2022-10-23T00:38:44.837Z,35.10
2022-10-23T00:41:18.042Z,35.30
2022-10-23T00:44:01.052Z,35.40
2022-10-23T00:46:28.363Z,34.90
2022-10-23T00:48:57.538Z,34.70
2022-10-23T00:51:26.019Z,35.20
2022-10-23T00:54:06.745Z,35.20
2022-10-23T00:56:46.202Z,34.60
2022-10-23T00:59:13.651Z,34.40
2022-10-23T01:01:41.434Z,34.20
2022-10-23T01:04:09.517Z,34.50
2022-10-23T01:06:51.004Z,34.70
2022-10-23T01:09:37.996Z,34.60
2022-10-23T01:12:19.888Z,34.80
2022-10-23T01:15:16.828Z,34.10
2022-10-23T01:18:00.869Z,34.80
2022-10-23T01:20:45.431Z,35.10
2022-10-23T01:23:44.560Z,35.40
2022-10-23T01:26:20.261Z,35.50
2022-10-23T01:28:53.384Z,35.40
2022-10-23T01:31:44.152Z,35.40
2022-10-23T01:34:20.105Z,35.30
2022-10-23T01:36:50.834Z,35.60
2022-10-23T01:39:29.365Z,35.30
2022-10-23T01:42:02.331Z,35.30
2022-10-23T01:44:29.417Z,35.00
2022-10-23T01:46:57.794Z,35.00
2022-10-23T01:49:25.180Z,35.10
2022-10-23T01:51:56.359Z,35.00
2022-10-23T01:54:26.536Z,35.00
2022-10-23T01:56:54.109Z,34.90
2022-10-23T01:59:25.960Z,35.30
2022-10-23T02:01:55.776Z,34.90
2022-10-23T02:04:30.167Z,34.80
2022-10-23T02:06:57.263Z,35.10
2022-10-23T02:09:24.379Z,35.30
2022-10-23T02:12:02.811Z,35.30
2022-10-23T02:14:37.753Z,35.30
2022-10-23T02:17:32.309Z,35.20
2022-10-23T02:20:35.005Z,35.40
2022-10-23T02:23:17.412Z,35.80
2022-10-23T02:26:03.894Z,35.60
2022-10-23T02:28:52.381Z,34.80
2022-10-23T02:31:22.927Z,35.40
2022-10-23T02:33:49.975Z,35.80
2022-10-23T02:36:19.277Z,36.00
2022-10-23T02:38:46.895Z,35.90
2022-10-23T02:41:39.854Z,36.10
2022-10-23T02:44:12.773Z,36.10
2022-10-23T02:47:07.688Z,35.50
2022-10-23T02:50:02.440Z,35.40
2022-10-23T02:52:44.349Z,35.00
2022-10-23T02:55:50.739Z,35.90
2022-10-23T02:58:56.760Z,36.60
2022-10-23T03:01:29.591Z,36.60
2022-10-23T03:04:03.247Z,35.90
2022-10-23T03:06:30.181Z,34.90
2022-10-23T03:09:04.857Z,34.80
2022-10-23T03:11:32.336Z,33.90
2022-10-23T03:13:59.482Z,33.50
2022-10-23T03:16:26.421Z,33.60
2022-10-23T03:18:53.383Z,33.30
2022-10-23T03:21:20.662Z,33.40
2022-10-23T03:23:47.589Z,33.40
2022-10-23T03:26:14.789Z,34.10
2022-10-23T03:28:44.507Z,34.10
2022-10-23T03:31:11.596Z,33.70
2022-10-23T03:33:38.748Z,33.70
2022-10-23T03:36:06.028Z,32.90
2022-10-23T03:38:33.186Z,32.60
2022-10-23T03:41:00.284Z,32.90
2022-10-23T03:43:27.194Z,32.90
2022-10-23T03:45:55.669Z,33.40
2022-10-23T03:48:24.251Z,33.40
2022-10-23T03:50:51.410Z,33.40
2022-10-23T03:53:18.866Z,33.70
2022-10-23T03:55:45.924Z,34.20
2022-10-23T03:58:12.924Z,34.20
2022-10-23T04:00:39.939Z,34.40
2022-10-23T04:03:06.938Z,34.60
2022-10-23T04:05:33.920Z,34.70
2022-10-23T04:08:00.946Z,34.70
2022-10-23T04:10:28.203Z,34.90
2022-10-23T04:12:55.297Z,34.80
2022-10-23T04:15:22.303Z,34.30
2022-10-23T04:17:49.349Z,33.70
2022-10-23T04:20:19.264Z,33.70
2022-10-23T04:22:46.667Z,34.20
2022-10-23T04:25:13.998Z,34.80
2022-10-23T04:27:41.485Z,35.10
2022-10-23T04:30:10.017Z,35.00
2022-10-23T04:32:37.460Z,34.80
2022-10-23T04:35:05.009Z,35.00
2022-10-23T04:37:35.011Z,35.40
2022-10-23T04:40:01.989Z,35.20
2022-10-23T04:42:28.879Z,34.40
2022-10-23T04:44:59.057Z,34.30
2022-10-23T04:47:25.951Z,33.70
2022-10-23T04:49:53.268Z,33.80
2022-10-23T04:52:20.310Z,34.10
2022-10-23T04:54:48.049Z,34.10
2022-10-23T04:57:17.488Z,34.10
2022-10-23T04:59:44.445Z,34.50
2022-10-23T05:02:11.401Z,34.80
2022-10-23T05:04:38.413Z,35.40
2022-10-23T05:07:05.651Z,35.30
2022-10-23T05:09:32.732Z,35.20
2022-10-23T05:11:59.668Z,34.80
2022-10-23T05:14:26.663Z,34.60
2022-10-23T05:16:56.065Z,34.50
2022-10-23T05:19:27.937Z,34.60
2022-10-23T05:21:56.115Z,35.10
2022-10-23T05:24:23.734Z,35.40
2022-10-23T05:26:52.985Z,35.40
2022-10-23T05:29:20.902Z,35.10
2022-10-23T05:31:50.748Z,35.60
2022-10-23T05:34:20.906Z,35.10
2022-10-23T05:36:48.473Z,34.80
2022-10-23T05:39:16.117Z,35.00
2022-10-23T05:41:44.857Z,34.90
2022-10-23T05:44:11.815Z,35.10
2022-10-23T05:46:43.220Z,35.90
2022-10-23T05:49:14.904Z,35.70
2022-10-23T05:51:51.073Z,35.30
2022-10-23T05:54:18.092Z,35.80
2022-10-23T05:56:48.038Z,36.00
2022-10-23T05:59:24.834Z,35.50
2022-10-23T06:01:52.341Z,35.80
2022-10-23T06:04:19.423Z,35.60
2022-10-23T06:06:47.339Z,35.00
2022-10-23T06:09:16.105Z,35.00
2022-10-23T06:11:43.873Z,35.10
2022-10-23T06:14:10.817Z,35.40
2022-10-23T06:16:41.465Z,35.70
2022-10-23T06:19:12.354Z,35.90
2022-10-23T06:21:43.441Z,36.30
2022-10-23T06:24:10.785Z,36.40
2022-10-23T06:26:37.750Z,36.40
2022-10-23T06:29:05.075Z,36.50
2022-10-23T06:31:41.891Z,36.30
2022-10-23T06:34:11.652Z,35.70
2022-10-23T06:36:38.931Z,35.50
2022-10-23T06:39:06.549Z,35.00
2022-10-23T06:41:36.363Z,35.10
2022-10-23T06:44:03.455Z,35.40
2022-10-23T06:46:33.171Z,35.30
2022-10-23T06:49:00.123Z,35.40
2022-10-23T06:51:40.482Z,35.50
2022-10-23T06:54:15.353Z,35.40
2022-10-23T06:56:45.643Z,35.80
2022-10-23T06:59:16.200Z,34.40
2022-10-23T07:01:43.428Z,34.80
2022-10-23T07:04:12.338Z,34.90
2022-10-23T07:06:41.709Z,35.50
2022-10-23T07:09:11.305Z,35.80
2022-10-23T07:11:38.479Z,35.60
2022-10-23T07:14:05.477Z,35.10
2022-10-23T07:16:32.974Z,35.90
2022-10-23T07:19:01.370Z,35.40
2022-10-23T07:21:32.556Z,35.40
2022-10-23T07:23:59.469Z,35.40
2022-10-23T07:26:26.468Z,35.30
2022-10-23T07:28:55.372Z,35.20
2022-10-23T07:31:27.213Z,35.70
2022-10-23T07:33:55.285Z,36.00
2022-10-23T07:36:22.321Z,36.20
2022-10-23T07:38:51.818Z,36.30
2022-10-23T07:41:18.848Z,36.30
2022-10-23T07:43:45.895Z,36.50
2022-10-23T07:46:12.942Z,36.40
2022-10-23T07:48:40.762Z,36.30
2022-10-23T07:51:12.592Z,36.50
2022-10-23T07:53:41.677Z,36.60
2022-10-23T07:56:26.010Z,36.50
2022-10-23T07:58:56.223Z,36.70
2022-10-23T08:01:39.780Z,36.50
2022-10-23T08:04:07.698Z,37.00
2022-10-23T08:06:35.657Z,36.70
2022-10-23T08:09:06.206Z,36.70
2022-10-23T08:11:38.041Z,36.30
2022-10-23T08:14:06.169Z,36.50
2022-10-23T08:16:38.176Z,36.60
2022-10-23T08:19:07.863Z,36.50
2022-10-23T08:21:35.119Z,35.80
2022-10-23T08:24:02.275Z,35.70
2022-10-23T08:26:29.975Z,36.00
2022-10-23T08:28:58.789Z,36.10
2022-10-23T08:31:26.249Z,35.50
2022-10-23T08:33:54.980Z,35.20
2022-10-23T08:36:28.211Z,35.60
2022-10-23T08:38:57.491Z,35.90
2022-10-23T08:41:38.793Z,35.40
2022-10-23T08:44:30.067Z,35.50
2022-10-23T08:47:03.218Z,35.70
2022-10-23T08:49:57.136Z,35.80
2022-10-23T08:52:43.529Z,35.30
2022-10-23T08:55:22.295Z,36.30
2022-10-23T08:58:03.731Z,36.80
2022-10-23T09:00:31.599Z,36.90
2022-10-23T09:03:06.744Z,36.30
2022-10-23T09:05:56.055Z,36.70
2022-10-23T09:08:34.812Z,36.80
2022-10-23T09:11:03.639Z,36.60
2022-10-23T09:13:52.984Z,36.90
2022-10-23T09:16:28.811Z,36.50
2022-10-23T09:18:57.623Z,36.60
2022-10-23T09:21:30.736Z,36.50
2022-10-23T09:23:57.816Z,36.20
2022-10-23T09:26:27.262Z,36.20
2022-10-23T09:29:09.269Z,36.30
2022-10-23T09:31:55.225Z,36.90
2022-10-23T09:34:25.295Z,37.50
2022-10-23T09:36:58.136Z,38.10
2022-10-23T09:39:34.316Z,38.70
2022-10-23T09:42:13.402Z,39.70
2022-10-23T09:44:49.203Z,39.70
2022-10-23T09:47:20.873Z,40.30
2022-10-23T09:49:54.093Z,40.80
2022-10-23T09:52:37.007Z,41.30
2022-10-23T09:55:21.511Z,41.30
2022-10-23T09:57:48.900Z,41.20
2022-10-23T10:00:25.402Z,41.50
2022-10-23T10:02:59.750Z,41.50
2022-10-23T10:05:28.339Z,41.70
2022-10-23T10:07:59.295Z,41.60
2022-10-23T10:10:30.458Z,41.80
2022-10-23T10:13:26.399Z,42.00
2022-10-23T10:16:01.672Z,42.00
2022-10-23T10:18:59.058Z,42.60
2022-10-23T10:21:31.822Z,42.50
2022-10-23T10:24:23.973Z,42.80
2022-10-23T10:27:42.549Z,42.80
2022-10-23T10:30:21.938Z,42.30
2022-10-23T10:33:17.307Z,41.70
2022-10-23T10:36:05.884Z,40.90
2022-10-23T10:39:01.166Z,40.50
2022-10-23T10:41:49.920Z,40.60
2022-10-23T10:44:47.346Z,41.60
2022-10-23T10:47:32.531Z,42.40
2022-10-23T10:50:08.132Z,42.30
2022-10-23T10:53:13.334Z,42.20
2022-10-23T10:55:42.676Z,41.80
2022-10-23T10:58:21.822Z,41.40
2022-10-23T11:00:57.161Z,41.30
2022-10-23T11:03:40.250Z,41.90
2022-10-23T11:06:16.051Z,41.50
2022-10-23T11:08:57.198Z,41.70
2022-10-23T11:11:49.757Z,41.80
2022-10-23T11:14:25.953Z,41.70
2022-10-23T11:17:20.403Z,41.10
2022-10-23T11:19:57.862Z,41.70
2022-10-23T11:22:38.957Z,41.60
2022-10-23T11:25:28.911Z,41.40
2022-10-23T11:28:17.382Z,41.30
2022-10-23T11:31:23.682Z,42.10
2022-10-23T11:34:17.591Z,41.60
2022-10-23T11:36:52.810Z,41.70
2022-10-23T11:39:22.162Z,41.80
2022-10-23T11:41:58.766Z,41.70
2022-10-23T11:44:40.105Z,41.60
2022-10-23T11:47:31.332Z,41.40
2022-10-23T11:50:09.625Z,41.70
2022-10-23T11:53:09.197Z,42.40
2022-10-23T11:55:39.554Z,42.80
2022-10-23T11:58:23.057Z,42.60
2022-10-23T12:01:06.458Z,42.90
2022-10-23T12:03:49.154Z,42.70
2022-10-23T12:06:32.101Z,42.50
2022-10-23T12:09:08.110Z,42.70
2022-10-23T12:11:42.653Z,42.00
2022-10-23T12:14:31.089Z,42.20
2022-10-23T12:16:59.195Z,42.60
2022-10-23T12:19:41.278Z,43.20
2022-10-23T12:22:11.054Z,43.00
2022-10-23T12:24:56.981Z,43.10
2022-10-23T12:27:51.804Z,43.20
2022-10-23T12:30:22.826Z,42.80
2022-10-23T12:33:20.782Z,42.40
2022-10-23T12:36:12.093Z,42.00
2022-10-23T12:38:50.058Z,42.30
2022-10-23T12:41:21.626Z,42.60
2022-10-23T12:44:01.227Z,42.50
2022-10-23T12:46:39.705Z,42.10
2022-10-23T12:49:21.890Z,41.90
2022-10-23T12:52:06.823Z,41.50
2022-10-23T12:54:39.769Z,41.60
2022-10-23T12:57:29.063Z,41.60
2022-10-23T13:00:00.389Z,42.10
2022-10-23T13:02:30.995Z,42.10
2022-10-23T13:05:02.223Z,42.30
2022-10-23T13:07:36.946Z,42.40
2022-10-23T13:10:05.794Z,42.60
2022-10-23T13:12:40.173Z,43.00
2022-10-23T13:15:07.210Z,43.00
2022-10-23T13:17:54.385Z,42.50
2022-10-23T13:20:30.666Z,42.80
2022-10-23T13:23:00.939Z,43.20
2022-10-23T13:25:33.957Z,43.00
2022-10-23T13:28:25.575Z,42.70
2022-10-23T13:31:11.732Z,42.30
2022-10-23T13:34:10.540Z,41.60
2022-10-23T13:36:39.715Z,41.10
2022-10-23T13:39:09.761Z,40.30
2022-10-23T13:41:40.968Z,40.00
2022-10-23T13:44:10.541Z,40.50
2022-10-23T13:46:38.301Z,40.70
2022-10-23T13:49:05.380Z,40.80
2022-10-23T13:51:54.983Z,41.10
2022-10-23T13:54:24.977Z,40.60
2022-10-23T13:56:53.043Z,41.00
2022-10-23T13:59:20.310Z,41.10
2022-10-23T14:01:49.212Z,41.00
2022-10-23T14:04:18.354Z,40.90
2022-10-23T14:06:45.520Z,41.20
2022-10-23T14:09:15.865Z,41.30
2022-10-23T14:11:43.605Z,41.40
2022-10-23T14:14:10.791Z,41.60
2022-10-23T14:16:38.235Z,41.40
2022-10-23T14:19:05.255Z,41.40
2022-10-23T14:21:32.260Z,40.80
2022-10-23T14:23:59.381Z,40.80
2022-10-23T14:26:30.301Z,40.50
2022-10-23T14:28:59.543Z,40.60
2022-10-23T14:31:30.239Z,40.40
2022-10-23T14:34:00.755Z,40.30
2022-10-23T14:36:38.472Z,40.20
2022-10-23T14:39:16.737Z,40.30
2022-10-23T14:41:45.598Z,39.90
2022-10-23T14:44:12.592Z,39.40
2022-10-23T14:46:40.154Z,39.20
2022-10-23T14:49:07.742Z,39.20
2022-10-23T14:51:34.719Z,39.30
2022-10-23T14:54:04.717Z,39.10
2022-10-23T14:56:37.928Z,39.30
2022-10-23T14:59:05.564Z,39.30
2022-10-23T15:01:35.065Z,39.60
2022-10-23T15:04:02.148Z,39.60
2022-10-23T15:06:29.250Z,39.50
2022-10-23T15:08:56.726Z,39.30
2022-10-23T15:11:25.700Z,39.40
2022-10-23T15:13:55.032Z,39.40
2022-10-23T15:16:23.258Z,39.40
2022-10-23T15:18:50.886Z,39.20
2022-10-23T15:21:18.253Z,39.00
2022-10-23T15:23:46.479Z,39.10
2022-10-23T15:26:24.309Z,39.10
2022-10-23T15:28:59.592Z,39.20
2022-10-23T15:31:39.967Z,39.20
2022-10-23T15:34:12.178Z,39.30
2022-10-23T15:36:39.284Z,39.20
2022-10-23T15:39:09.051Z,39.20
2022-10-23T15:41:39.649Z,39.30
2022-10-23T15:44:07.530Z,39.20
2022-10-23T15:46:41.290Z,39.20
2022-10-23T15:49:09.877Z,38.90
2022-10-23T15:51:38.155Z,38.80
2022-10-23T15:54:06.695Z,38.60
2022-10-23T15:56:35.337Z,38.70
2022-10-23T15:59:05.197Z,38.50
2022-10-23T16:01:34.837Z,38.20
2022-10-23T16:04:03.378Z,38.20
2022-10-23T16:06:33.285Z,38.40
2022-10-23T16:09:00.727Z,38.50
2022-10-23T16:11:36.217Z,38.40
2022-10-23T16:14:05.075Z,38.40
2022-10-23T16:16:36.408Z,38.40
2022-10-23T16:19:08.660Z,38.40
2022-10-23T16:21:36.772Z,38.30
2022-10-23T16:24:08.111Z,38.30
2022-10-23T16:26:37.941Z,38.10
2022-10-23T16:29:09.502Z,38.10
2022-10-23T16:31:36.889Z,38.00
2022-10-23T16:34:05.655Z,37.90
2022-10-23T16:36:33.897Z,37.70
2022-10-23T16:39:05.960Z,37.80
2022-10-23T16:41:33.324Z,37.90
2022-10-23T16:44:01.946Z,37.70
2022-10-23T16:46:28.988Z,37.70
2022-10-23T16:48:55.963Z,37.80
2022-10-23T16:51:26.518Z,37.90
2022-10-23T16:53:54.321Z,37.90
2022-10-23T16:56:24.299Z,37.60
2022-10-23T16:58:53.475Z,37.50
2022-10-23T17:01:27.936Z,37.60
2022-10-23T17:03:58.878Z,37.30
2022-10-23T17:06:32.161Z,37.50
2022-10-23T17:09:00.654Z,37.20
2022-10-23T17:11:30.618Z,37.10
2022-10-23T17:14:04.128Z,37.20
2022-10-23T17:16:52.252Z,37.30
2022-10-23T17:22:12.884Z,36.90
2022-10-23T17:24:41.771Z,36.90
2022-10-23T17:27:09.018Z,36.80
2022-10-23T17:29:36.320Z,37.00
2022-10-23T17:32:04.049Z,36.80
2022-10-23T17:34:31.132Z,36.70
2022-10-23T17:36:58.060Z,36.10
2022-10-23T17:39:29.598Z,36.30
2022-10-23T17:41:57.282Z,36.00
2022-10-23T17:44:24.314Z,36.10
2022-10-23T17:46:53.693Z,36.10
2022-10-23T17:49:22.574Z,36.40
2022-10-23T17:51:57.302Z,36.20
2022-10-23T17:54:26.067Z,36.30
2022-10-23T17:56:53.102Z,36.30
2022-10-23T17:59:20.138Z,36.20
2022-10-23T18:01:48.493Z,36.30
2022-10-23T18:04:18.387Z,36.20
2022-10-23T18:06:50.035Z,36.70
2022-10-23T18:09:18.065Z,36.80
2022-10-23T18:11:48.210Z,36.60
2022-10-23T18:14:17.533Z,36.80
2022-10-23T18:16:46.151Z,36.40
2022-10-23T18:19:14.409Z,36.40
2022-10-23T18:21:41.593Z,36.30
2022-10-23T18:24:08.902Z,36.30
2022-10-23T18:26:39.725Z,36.40
2022-10-23T18:29:10.489Z,36.10
2022-10-23T18:31:43.766Z,36.30
2022-10-23T18:34:22.539Z,36.50
2022-10-23T18:36:51.327Z,36.40
2022-10-23T18:39:22.485Z,36.70
2022-10-23T18:41:56.388Z,37.00
2022-10-23T18:44:26.578Z,37.10
2022-10-23T18:46:57.149Z,37.20
2022-10-23T18:49:24.869Z,36.80
2022-10-23T18:51:51.896Z,37.20
2022-10-23T18:54:21.468Z,36.90
2022-10-23T18:56:49.502Z,36.90
2022-10-23T18:59:20.538Z,36.90
2022-10-23T19:01:51.097Z,36.80
2022-10-23T19:04:21.696Z,36.90
2022-10-23T19:06:50.350Z,36.80
2022-10-23T19:09:19.813Z,36.40
2022-10-23T19:11:47.270Z,36.40
2022-10-23T19:14:14.890Z,36.70
2022-10-23T19:16:57.804Z,37.00
2022-10-23T19:19:33.897Z,36.70
2022-10-23T19:22:03.008Z,36.70
2022-10-23T19:24:46.599Z,36.70
2022-10-23T19:27:16.911Z,36.60
2022-10-23T19:29:47.243Z,36.80
2022-10-23T19:32:16.685Z,37.00
2022-10-23T19:34:46.531Z,37.10
2022-10-23T19:37:18.107Z,37.00
2022-10-23T19:39:51.204Z,36.90
2022-10-23T19:42:23.957Z,36.90
2022-10-23T19:45:03.824Z,36.80
2022-10-23T19:47:30.795Z,36.90
2022-10-23T19:49:57.887Z,36.70
2022-10-23T19:52:25.400Z,36.60
2022-10-23T19:54:52.453Z,36.30
2022-10-23T19:57:22.731Z,36.50
2022-10-23T19:59:53.355Z,36.40
2022-10-23T20:02:21.274Z,36.50
2022-10-23T20:04:49.549Z,36.70
2022-10-23T20:07:27.960Z,36.70
2022-10-23T20:09:55.282Z,36.30
2022-10-23T20:12:22.958Z,36.20
2022-10-23T20:14:51.061Z,35.90
2022-10-23T20:17:21.335Z,36.10
2022-10-23T20:19:54.138Z,36.10
2022-10-23T20:22:21.397Z,36.30
2022-10-23T20:24:48.486Z,36.10
2022-10-23T20:27:16.060Z,36.40
2022-10-23T20:29:43.746Z,36.20
2022-10-23T20:32:14.434Z,36.10
2022-10-23T20:34:43.472Z,35.80
2022-10-23T20:37:11.450Z,36.10
2022-10-23T20:39:44.713Z,36.30
2022-10-23T20:42:25.854Z,36.60
2022-10-23T20:44:59.382Z,36.70
2022-10-23T20:47:30.298Z,36.70
2022-10-23T20:49:57.311Z,36.50
2022-10-23T20:52:24.796Z,36.40
2022-10-23T20:54:51.913Z,36.00
2022-10-23T20:57:21.312Z,36.10
2022-10-23T20:59:48.543Z,35.90
2022-10-23T21:02:15.734Z,36.00
2022-10-23T21:04:42.971Z,36.20
2022-10-23T21:07:11.364Z,36.40
2022-10-23T21:09:40.987Z,36.10
2022-10-23T21:12:12.924Z,36.10
2022-10-23T21:14:39.915Z,35.80
2022-10-23T21:17:09.188Z,36.10
2022-10-23T21:19:36.770Z,36.10
2022-10-23T21:22:03.740Z,36.30
2022-10-23T21:24:30.908Z,36.50
2022-10-23T21:26:57.864Z,36.30
2022-10-23T21:29:24.944Z,36.50
2022-10-23T21:31:58.858Z,36.70
2022-10-23T21:34:26.938Z,36.50
2022-10-23T21:37:12.069Z,36.40
2022-10-23T21:39:42.324Z,36.10
2022-10-23T21:42:09.532Z,36.10
2022-10-23T21:44:36.482Z,36.10
2022-10-23T21:47:03.505Z,36.10
2022-10-23T21:49:30.388Z,36.30
2022-10-23T21:51:57.295Z,36.30
2022-10-23T21:54:24.261Z,36.20
2022-10-23T21:56:55.205Z,36.40
2022-10-23T21:59:26.741Z,36.10
2022-10-23T22:01:56.547Z,36.10
2022-10-23T22:04:23.767Z,36.10
2022-10-23T22:06:50.822Z,36.10
2022-10-23T22:09:20.740Z,36.20
2022-10-23T22:11:52.547Z,35.90
2022-10-23T22:14:19.654Z,35.90
2022-10-23T22:16:47.387Z,36.00
2022-10-23T22:19:17.005Z,36.20
2022-10-23T22:21:44.966Z,36.30
2022-10-23T22:24:12.328Z,35.90
2022-10-23T22:26:41.981Z,35.90
2022-10-23T22:29:12.889Z,35.80
2022-10-23T22:31:44.139Z,35.70
2022-10-23T22:34:25.380Z,35.60
2022-10-23T22:37:01.032Z,35.30
2022-10-23T22:39:28.062Z,35.40
2022-10-23T22:41:54.951Z,35.30
2022-10-23T22:44:21.909Z,35.60
2022-10-23T22:46:49.045Z,35.50
2022-10-23T22:49:16.598Z,35.40
2022-10-23T22:51:43.551Z,35.20
2022-10-23T22:54:11.035Z,35.30
2022-10-23T22:56:39.109Z,34.80
2022-10-23T22:59:06.187Z,34.90
2022-10-23T23:01:40.547Z,35.00
2022-10-23T23:04:25.977Z,35.10
2022-10-23T23:06:54.928Z,35.30
2022-10-23T23:09:21.963Z,35.40
2022-10-23T23:11:52.723Z,35.60
2022-10-23T23:14:23.591Z,35.30
2022-10-23T23:16:52.909Z,35.00
2022-10-23T23:19:20.243Z,35.00
2022-10-23T23:21:47.407Z,34.80
2022-10-23T23:24:14.543Z,34.80
2022-10-23T23:26:41.502Z,34.60
2022-10-23T23:29:08.394Z,34.70
2022-10-23T23:31:35.438Z,35.10
2022-10-23T23:34:02.449Z,35.00
2022-10-23T23:36:29.918Z,35.20
2022-10-23T23:38:58.698Z,35.20
2022-10-23T23:41:28.623Z,35.00
2022-10-23T23:43:57.827Z,35.00
2022-10-23T23:46:26.546Z,35.00
2022-10-23T23:48:53.735Z,35.20
2022-10-23T23:51:25.800Z,34.90
2022-10-23T23:53:53.568Z,34.70
2022-10-23T23:56:20.813Z,35.00
2022-10-23T23:58:47.817Z,35.00
